createdAt,value
2023-04-03T00:03:39.273Z,7.28
2023-04-03T00:07:21.321Z,7.93
2023-04-03T00:11:04.047Z,7.22
2023-04-03T00:14:45.916Z,6.47
2023-04-03T00:18:27.713Z,8.45
2023-04-03T00:22:09.490Z,10.20
2023-04-03T00:25:54.215Z,6.97
2023-04-03T00:29:35.984Z,5.50
2023-04-03T00:33:18.026Z,12.10
2023-04-03T00:36:59.900Z,8.52
2023-04-03T00:40:44.697Z,10.13
2023-04-03T00:44:29.437Z,6.00
2023-04-03T00:48:15.842Z,9.60
2023-04-03T00:51:59.674Z,8.05
2023-04-03T00:55:43.866Z,8.95
2023-04-03T00:59:31.676Z,8.68
2023-04-03T01:03:13.544Z,9.18
2023-04-03T01:06:58.984Z,7.10
2023-04-03T01:10:40.956Z,6.28
2023-04-03T01:14:22.709Z,7.43
2023-04-03T01:18:05.824Z,5.65
2023-04-03T01:22:20.775Z,5.10
2023-04-03T01:26:03.728Z,6.75
2023-04-03T01:29:46.345Z,9.10
2023-04-03T01:33:28.235Z,6.60
2023-04-03T01:37:10.057Z,4.20
2023-04-03T01:40:51.775Z,6.93
2023-04-03T01:44:33.538Z,7.03
2023-04-03T01:48:15.312Z,6.68
2023-04-03T01:51:57.079Z,6.07
2023-04-03T01:55:38.820Z,7.40
2023-04-03T01:59:20.707Z,8.52
2023-04-03T02:03:02.742Z,7.80
2023-04-03T02:06:44.509Z,7.15
2023-04-03T02:10:26.474Z,6.70
2023-04-03T02:14:08.304Z,6.88
2023-04-03T02:17:50.333Z,8.77
2023-04-03T02:21:32.105Z,7.28
2023-04-03T02:25:13.895Z,5.53
2023-04-03T02:28:55.717Z,10.23
2023-04-03T02:32:37.510Z,8.75
2023-04-03T02:36:19.339Z,9.93
2023-04-03T02:40:01.127Z,5.57
2023-04-03T02:43:42.895Z,5.68
2023-04-03T02:47:24.815Z,10.00
2023-04-03T02:51:06.922Z,7.70
2023-04-03T02:54:48.977Z,6.75
2023-04-03T02:58:30.818Z,6.22
2023-04-03T03:02:12.634Z,6.75
2023-04-03T03:06:12.676Z,5.05
2023-04-03T03:09:54.452Z,7.07
2023-04-03T03:13:36.852Z,7.30
2023-04-03T03:17:19.054Z,8.60
2023-04-03T03:21:03.310Z,10.93
2023-04-03T03:24:45.275Z,5.18
2023-04-03T03:28:27.722Z,7.40
2023-04-03T03:32:09.967Z,6.78
2023-04-03T03:35:52.624Z,4.63
2023-04-03T03:39:34.427Z,5.82
2023-04-03T03:43:16.693Z,12.50
2023-04-03T03:46:58.504Z,6.57
2023-04-03T03:50:40.379Z,5.93
2023-04-03T03:54:22.130Z,7.70
2023-04-03T03:58:04.545Z,6.05
2023-04-03T04:01:46.311Z,15.00
2023-04-03T04:05:28.151Z,4.55
2023-04-03T04:09:10.631Z,9.57
2023-04-03T04:12:52.592Z,8.40
2023-04-03T04:16:34.510Z,7.97
2023-04-03T04:20:16.554Z,8.77
2023-04-03T04:23:58.564Z,3.42
2023-04-03T04:27:40.523Z,7.00
2023-04-03T04:31:22.304Z,4.78
2023-04-03T04:35:05.090Z,8.45
2023-04-03T04:38:47.410Z,8.65
2023-04-03T04:42:29.253Z,6.65
2023-04-03T04:46:14.811Z,5.90
2023-04-03T04:49:56.686Z,9.73
2023-04-03T04:53:38.832Z,7.80
2023-04-03T04:57:21.022Z,10.27
2023-04-03T05:01:08.248Z,6.95
2023-04-03T05:04:51.382Z,7.43
2023-04-03T05:08:33.608Z,8.10
2023-04-03T05:12:15.590Z,9.35
2023-04-03T05:15:57.394Z,8.93
2023-04-03T05:19:39.149Z,8.93
2023-04-03T05:23:20.885Z,9.18
2023-04-03T05:27:03.391Z,11.10
2023-04-03T05:30:45.125Z,6.50
2023-04-03T05:34:26.980Z,5.63
2023-04-03T05:38:09.134Z,8.73
2023-04-03T05:41:51.082Z,8.95
2023-04-03T05:45:33.129Z,7.38
2023-04-03T05:49:15.000Z,6.18
2023-04-03T05:52:59.705Z,12.27
2023-04-03T05:56:41.521Z,6.10
2023-04-03T06:00:23.679Z,7.00
2023-04-03T06:04:05.790Z,6.30
2023-04-03T06:07:47.676Z,9.00
2023-04-03T06:11:29.650Z,12.30
2023-04-03T06:15:12.749Z,7.10
2023-04-03T06:18:54.506Z,10.75
2023-04-03T06:22:36.935Z,10.82
2023-04-03T06:26:18.985Z,7.47
2023-04-03T06:30:01.052Z,10.07
2023-04-03T06:33:43.074Z,7.13
2023-04-03T06:37:27.176Z,7.05
2023-04-03T06:41:08.968Z,9.60
2023-04-03T06:44:51.084Z,9.75
2023-04-03T06:48:32.880Z,11.38
2023-04-03T06:52:14.692Z,7.93
2023-04-03T06:55:56.633Z,9.73
2023-04-03T06:59:38.433Z,13.30
2023-04-03T07:03:20.189Z,9.60
2023-04-03T07:07:02.249Z,11.73
2023-04-03T07:10:44.079Z,7.78
2023-04-03T07:14:26.021Z,7.65
2023-04-03T07:18:08.297Z,11.07
2023-04-03T07:21:50.102Z,11.07
2023-04-03T07:25:32.771Z,12.65
2023-04-03T07:29:15.072Z,10.43
2023-04-03T07:32:57.126Z,7.70
2023-04-03T07:36:42.275Z,6.82
2023-04-03T07:40:24.113Z,8.95
2023-04-03T07:44:06.542Z,9.55
2023-04-03T07:47:49.316Z,8.25
2023-04-03T07:51:31.848Z,6.78
2023-04-03T07:55:13.948Z,10.57
2023-04-03T07:58:56.199Z,6.60
2023-04-03T08:02:38.085Z,7.15
2023-04-03T08:06:23.842Z,11.63
2023-04-03T08:10:11.533Z,5.57
2023-04-03T08:13:53.712Z,8.70
2023-04-03T08:17:36.132Z,5.50
2023-04-03T08:21:17.995Z,8.63
2023-04-03T08:24:59.968Z,7.35
2023-04-03T08:28:42.338Z,7.35
2023-04-03T08:32:24.434Z,7.00
2023-04-03T08:36:08.710Z,7.45
2023-04-03T08:39:51.100Z,7.03
2023-04-03T08:43:49.644Z,8.68
2023-04-03T08:47:47.089Z,4.47
2023-04-03T08:51:29.614Z,5.38
2023-04-03T08:55:20.707Z,7.38
2023-04-03T08:59:16.671Z,8.88
2023-04-03T09:02:58.516Z,6.15
2023-04-03T09:06:40.734Z,6.18
2023-04-03T09:10:29.068Z,5.07
2023-04-03T09:14:45.612Z,5.47
2023-04-03T09:18:37.109Z,4.88
2023-04-03T09:22:25.783Z,5.80
2023-04-03T09:26:15.475Z,4.78
2023-04-03T09:29:59.037Z,6.80
2023-04-03T09:33:41.937Z,7.18
2023-04-03T09:37:44.353Z,8.15
2023-04-03T09:41:26.104Z,9.75
2023-04-03T09:45:25.768Z,5.65
2023-04-03T09:49:12.661Z,11.98
2023-04-03T09:52:54.422Z,7.50
2023-04-03T09:56:36.336Z,7.78
2023-04-03T10:00:22.950Z,6.22
2023-04-03T10:04:11.828Z,8.80
2023-04-03T10:08:08.821Z,7.07
2023-04-03T10:12:13.215Z,8.10
2023-04-03T10:16:01.267Z,8.02
2023-04-03T10:19:46.119Z,7.43
2023-04-03T10:23:48.919Z,9.55
2023-04-03T10:28:01.127Z,8.55
2023-04-03T10:32:21.046Z,7.18
2023-04-03T10:36:14.289Z,7.90
2023-04-03T10:40:06.144Z,5.75
2023-04-03T10:43:50.644Z,7.35
2023-04-03T10:47:52.290Z,5.87
2023-04-03T10:52:02.350Z,6.95
2023-04-03T10:56:01.898Z,8.25
2023-04-03T10:59:58.484Z,6.70
2023-04-03T11:03:44.388Z,6.10
2023-04-03T11:07:32.681Z,8.50
2023-04-03T11:11:18.715Z,7.85
2023-04-03T11:15:02.817Z,10.15
2023-04-03T11:19:11.533Z,9.55
2023-04-03T11:22:59.792Z,9.25
2023-04-03T11:26:43.365Z,7.32
2023-04-03T11:30:42.951Z,11.82
2023-04-03T11:34:49.035Z,8.73
2023-04-03T11:38:40.522Z,7.32
2023-04-03T11:42:38.291Z,6.95
2023-04-03T11:46:20.952Z,5.70
2023-04-03T11:50:06.288Z,8.07
2023-04-03T11:53:48.464Z,6.32
2023-04-03T11:57:48.315Z,7.45
2023-04-03T12:01:54.786Z,4.43
2023-04-03T12:05:37.216Z,5.57
2023-04-03T12:09:31.793Z,10.63
2023-04-03T12:13:17.633Z,6.68
2023-04-03T12:20:56.035Z,5.57
2023-04-03T12:24:43.677Z,5.13
2023-04-03T12:28:25.801Z,6.35
2023-04-03T12:32:08.305Z,5.63
2023-04-03T12:36:09.540Z,6.15
2023-04-03T12:39:58.945Z,5.57
2023-04-03T12:44:01.551Z,6.70
2023-04-03T12:47:44.631Z,28.73
2023-04-03T12:51:42.656Z,7.43
2023-04-03T12:55:24.964Z,7.70
2023-04-03T12:59:27.314Z,6.55
2023-04-03T13:03:27.826Z,9.35
2023-04-03T13:07:26.597Z,8.13
2023-04-03T13:11:12.969Z,7.68
2023-04-03T13:14:57.775Z,5.72
2023-04-03T13:18:39.675Z,6.18
2023-04-03T13:22:40.294Z,6.18
2023-04-03T13:26:25.164Z,10.43
2023-04-03T13:30:08.240Z,6.57
2023-04-03T13:34:12.931Z,8.07
2023-04-03T13:37:57.233Z,8.57
2023-04-03T13:41:42.097Z,7.40
2023-04-03T13:45:31.797Z,6.38
2023-04-03T13:49:44.076Z,8.52
2023-04-03T13:53:26.836Z,8.00
2023-04-03T13:57:16.080Z,6.97
2023-04-03T14:01:17.936Z,7.57
2023-04-03T14:05:02.829Z,10.52
2023-04-03T14:08:46.441Z,6.68
2023-04-03T14:12:31.895Z,7.38
2023-04-03T14:16:21.037Z,8.80
2023-04-03T14:20:03.642Z,6.80
2023-04-03T14:23:46.741Z,7.63
2023-04-03T14:27:31.322Z,6.95
2023-04-03T14:31:13.975Z,6.40
2023-04-03T14:34:56.683Z,6.70
2023-04-03T14:38:38.465Z,8.43
2023-04-03T14:42:24.667Z,7.72
2023-04-03T14:46:11.476Z,8.48
2023-04-03T14:49:53.518Z,8.20
2023-04-03T14:53:39.178Z,7.85
2023-04-03T14:57:25.076Z,6.15
2023-04-03T15:01:07.575Z,9.50
2023-04-03T15:04:51.320Z,7.95
2023-04-03T15:08:34.137Z,7.82
2023-04-03T15:12:16.226Z,8.30
2023-04-03T15:15:58.804Z,7.93
2023-04-03T15:19:41.313Z,8.18
2023-04-03T15:23:27.064Z,9.23
2023-04-03T15:27:09.371Z,7.47
2023-04-03T15:30:51.958Z,7.05
2023-04-03T15:34:33.758Z,8.32
2023-04-03T15:38:15.874Z,11.32
2023-04-03T15:42:00.792Z,7.63
2023-04-03T15:45:43.351Z,10.20
2023-04-03T15:49:25.459Z,5.68
2023-04-03T15:53:07.507Z,8.10
2023-04-03T15:56:50.399Z,9.27
2023-04-03T16:00:33.530Z,8.43
2023-04-03T16:04:16.742Z,7.75
2023-04-03T16:08:01.351Z,8.90
2023-04-03T16:11:44.368Z,11.00
2023-04-03T16:15:27.502Z,7.35
2023-04-03T16:19:10.482Z,11.45
2023-04-03T16:22:52.672Z,8.80
2023-04-03T16:26:34.486Z,8.98
2023-04-03T16:30:16.349Z,9.90
2023-04-03T16:33:59.426Z,8.70
2023-04-03T16:37:41.768Z,11.88
2023-04-03T16:41:23.639Z,8.27
2023-04-03T16:45:07.104Z,9.27
2023-04-03T16:48:48.927Z,5.78
2023-04-03T16:52:30.781Z,6.03
2023-04-03T16:56:12.546Z,5.72
2023-04-03T16:59:54.738Z,9.73
2023-04-03T17:03:36.652Z,7.55
2023-04-03T17:07:20.219Z,11.43
2023-04-03T17:11:02.097Z,6.10
2023-04-03T17:14:44.547Z,5.65
2023-04-03T17:18:27.561Z,6.78
2023-04-03T17:22:10.253Z,6.28
2023-04-03T17:25:52.409Z,8.65
2023-04-03T17:29:34.347Z,6.07
2023-04-03T17:33:16.387Z,8.60
2023-04-03T17:36:58.456Z,6.65
2023-04-03T17:40:45.221Z,5.90
2023-04-03T17:44:27.580Z,7.20
2023-04-03T17:48:09.673Z,10.38
2023-04-03T17:51:54.265Z,6.22
2023-04-03T17:55:38.974Z,9.98
2023-04-03T17:59:21.062Z,9.00
2023-04-03T18:03:03.801Z,8.55
2023-04-03T18:06:51.249Z,7.28
2023-04-03T18:10:35.249Z,7.22
2023-04-03T18:14:21.606Z,9.32
2023-04-03T18:18:03.637Z,11.82
2023-04-03T18:21:48.070Z,11.13
2023-04-03T18:29:18.183Z,10.48
2023-04-03T18:33:00.243Z,9.52
2023-04-03T18:36:42.089Z,10.02
2023-04-03T18:40:24.262Z,9.30
2023-04-03T18:44:10.545Z,9.65
2023-04-03T18:47:52.627Z,11.17
2023-04-03T18:51:34.533Z,10.13
2023-04-03T18:55:20.385Z,11.90
2023-04-03T18:59:02.518Z,10.32
2023-04-03T19:02:46.014Z,9.02
2023-04-03T19:06:28.440Z,14.32
2023-04-03T19:10:17.358Z,13.40
2023-04-03T19:14:14.376Z,16.20
2023-04-03T19:17:58.014Z,23.48
2023-04-03T19:21:42.587Z,18.90
2023-04-03T19:25:24.636Z,22.40
2023-04-03T19:29:06.456Z,26.83
2023-04-03T19:32:48.300Z,25.38
2023-04-03T19:36:31.369Z,21.83
2023-04-03T19:40:13.695Z,24.95
2023-04-03T19:43:56.659Z,22.08
2023-04-03T19:47:38.859Z,19.38
2023-04-03T19:51:20.886Z,25.08
2023-04-03T19:55:02.731Z,22.50
2023-04-03T19:58:45.766Z,18.60
2023-04-03T20:02:27.827Z,20.60
2023-04-03T20:06:09.799Z,20.90
2023-04-03T20:09:51.593Z,19.02
2023-04-03T20:13:33.501Z,16.77
2023-04-03T20:17:15.895Z,20.10
2023-04-03T20:21:00.490Z,19.73
2023-04-03T20:24:42.831Z,16.92
2023-04-03T20:28:25.417Z,8.93
2023-04-03T20:32:07.478Z,9.98
2023-04-03T20:35:49.893Z,9.70
2023-04-03T20:39:32.369Z,10.30
2023-04-03T20:43:14.549Z,9.25
2023-04-03T20:46:56.681Z,10.00
2023-04-03T20:50:38.884Z,8.75
2023-04-03T20:54:20.980Z,6.55
2023-04-03T20:58:03.616Z,8.55
2023-04-03T21:01:46.922Z,11.07
2023-04-03T21:05:30.384Z,11.27
2023-04-03T21:09:50.300Z,9.93
2023-04-03T21:14:09.664Z,11.13
2023-04-03T21:18:02.428Z,13.65
2023-04-03T21:21:45.876Z,13.52
2023-04-03T21:25:28.085Z,13.48
2023-04-03T21:29:11.015Z,11.75
2023-04-03T21:32:52.829Z,15.55
2023-04-03T21:36:41.306Z,13.27
2023-04-03T21:40:23.065Z,8.60
2023-04-03T21:44:05.573Z,9.68
2023-04-03T21:47:47.616Z,8.95
2023-04-03T21:51:29.601Z,8.48
2023-04-03T21:55:11.534Z,7.32
2023-04-03T21:58:53.584Z,7.90
2023-04-03T22:02:39.615Z,7.15
2023-04-03T22:06:24.813Z,6.82
2023-04-03T22:10:07.340Z,6.88
2023-04-03T22:13:52.105Z,9.85
2023-04-03T22:17:33.946Z,7.35
2023-04-03T22:21:15.766Z,6.30
2023-04-03T22:24:57.550Z,6.80
2023-04-03T22:28:46.889Z,4.93
2023-04-03T22:32:28.671Z,6.95
2023-04-03T22:36:12.173Z,7.00
2023-04-03T22:39:54.007Z,6.95
2023-04-03T22:43:37.870Z,7.38
2023-04-03T22:47:19.787Z,8.48
2023-04-03T22:51:06.883Z,8.20
2023-04-03T22:54:48.646Z,5.65
2023-04-03T22:58:30.639Z,5.20
2023-04-03T23:02:12.867Z,5.18
2023-04-03T23:05:56.229Z,5.22
2023-04-03T23:09:37.999Z,4.15
2023-04-03T23:13:20.027Z,6.95
2023-04-03T23:17:05.631Z,3.58
2023-04-03T23:20:48.289Z,5.88
2023-04-03T23:24:30.044Z,4.05
2023-04-03T23:28:11.938Z,4.43
2023-04-03T23:31:53.727Z,4.93
2023-04-03T23:35:35.534Z,7.90
2023-04-03T23:39:19.844Z,5.07
2023-04-03T23:43:01.610Z,6.22
2023-04-03T23:46:43.489Z,3.92
2023-04-03T23:50:25.627Z,5.55
2023-04-03T23:54:07.509Z,14.18
2023-04-03T23:57:49.602Z,6.80
